Time;durP1;ratioP1;P1;durP2;ratioP2;P2;SDS_P1;SDS_P2;PMS_P1;PMS_P2;Temp;Humidity;BMP_temperature;BMP_pressure;BME280_temperature;BME280_humidity;BME280_pressure;Samples;Min_cycle;Max_cycle;Signal;HPM_P1;HPM_P2
2023/07/24 00:01:09;;;;;;;1.35;1.23;;;;;;;17.67;100.00;100164.13;6290879;28;20056;-73
2023/07/24 00:04:10;;;;;;;2.00;1.52;;;;;;;17.72;100.00;100166.34;6285148;28;20052;-73
2023/07/24 00:07:12;;;;;;;2.05;1.50;;;;;;;17.69;100.00;100172.78;6275973;28;20044;-72
2023/07/24 00:10:15;;;;;;;2.50;1.38;;;;;;;17.77;100.00;100164.13;6276331;28;20064;-73
2023/07/24 00:13:16;;;;;;;2.30;1.27;;;;;;;17.74;100.00;100167.06;6275755;28;20060;-73
2023/07/24 00:16:17;;;;;;;2.83;1.10;;;;;;;17.73;100.00;100160.03;6276250;28;20064;-72
2023/07/24 00:19:19;;;;;;;3.17;1.73;;;;;;;17.74;100.00;100161.75;6284202;28;20129;-73
2023/07/24 00:22:20;;;;;;;3.05;1.70;;;;;;;17.72;100.00;100151.25;6275457;28;20053;-74
2023/07/24 00:25:23;;;;;;;1.98;1.58;;;;;;;17.71;100.00;100151.34;6275747;28;20048;-73
2023/07/24 00:28:24;;;;;;;4.55;1.80;;;;;;;17.75;100.00;100145.66;6275745;28;20049;-72
2023/07/24 00:31:26;;;;;;;3.75;2.10;;;;;;;17.77;100.00;100144.69;6275673;28;20365;-72
2023/07/24 00:34:27;;;;;;;2.05;1.52;;;;;;;17.81;100.00;100138.13;6275369;28;20059;-72
2023/07/24 00:37:28;;;;;;;1.83;1.45;;;;;;;17.95;100.00;100148.28;6275989;28;20049;-72
2023/07/24 00:40:31;;;;;;;2.28;1.52;;;;;;;17.97;100.00;100147.16;6275584;28;20049;-72
2023/07/24 00:43:33;;;;;;;1.98;1.65;;;;;;;17.94;100.00;100147.44;6285217;28;20360;-73
2023/07/24 00:46:36;;;;;;;3.47;1.98;;;;;;;17.93;100.00;100151.06;6300575;28;20052;-73
2023/07/24 00:49:37;;;;;;;1.77;1.55;;;;;;;17.91;100.00;100152.22;6300343;28;20135;-74
2023/07/24 00:52:39;;;;;;;2.83;2.13;;;;;;;17.91;100.00;100144.25;6300074;28;20045;-73
2023/07/24 00:55:42;;;;;;;2.33;1.83;;;;;;;17.84;100.00;100154.59;6300161;28;20365;-73
2023/07/24 00:58:44;;;;;;;2.45;1.50;;;;;;;17.83;100.00;100149.44;6300338;28;20056;-73
2023/07/24 01:01:46;;;;;;;2.70;2.03;;;;;;;17.81;100.00;100143.44;6296041;28;20318;-73
2023/07/24 01:04:48;;;;;;;4.95;2.20;;;;;;;17.70;100.00;100144.38;6291709;28;20044;-73
2023/07/24 01:07:49;;;;;;;3.25;1.98;;;;;;;17.72;100.00;100143.25;6300081;28;20048;-73
2023/07/24 01:10:52;;;;;;;2.67;2.10;;;;;;;17.68;100.00;100139.22;6300212;28;20055;-73
2023/07/24 01:13:58;;;;;;;2.20;1.98;;;;;;;17.77;100.00;100134.06;6299899;28;20425;-73
2023/07/24 01:17:01;;;;;;;4.53;2.15;;;;;;;17.74;100.00;100138.66;6300188;28;20077;-73
2023/07/24 01:20:05;;;;;;;2.63;2.30;;;;;;;17.69;100.00;100140.88;6299811;28;20456;-73
2023/07/24 01:23:18;;;;;;;2.65;2.17;;;;;;;17.68;100.00;100136.56;6299678;28;20045;-73
2023/07/24 01:26:23;;;;;;;2.53;2.20;;;;;;;17.73;100.00;100134.34;6299990;28;20098;-73
2023/07/24 01:29:25;;;;;;;6.82;2.63;;;;;;;17.74;100.00;100133.34;6300174;28;20448;-73
2023/07/24 01:32:26;;;;;;;10.13;2.72;;;;;;;17.74;100.00;100130.69;6299502;28;20433;-73
2023/07/24 01:35:29;;;;;;;3.35;2.65;;;;;;;17.73;100.00;100125.50;6291442;28;20044;-73
2023/07/24 01:38:32;;;;;;;4.28;2.95;;;;;;;17.74;100.00;100122.72;6279751;28;20053;-73
2023/07/24 01:41:35;;;;;;;5.13;2.65;;;;;;;17.78;100.00;100123.28;6281328;28;20049;-73
2023/07/24 01:44:37;;;;;;;3.53;2.50;;;;;;;17.74;100.00;100121.88;6295752;28;20048;-73
2023/07/24 01:47:39;;;;;;;7.38;2.97;;;;;;;17.69;100.00;100119.63;6304239;28;20453;-73
2023/07/24 01:50:40;;;;;;;2.55;2.35;;;;;;;17.70;100.00;100110.66;6304229;28;20049;-73
2023/07/24 01:53:42;;;;;;;4.63;2.63;;;;;;;17.65;100.00;100109.41;6289092;28;20425;-72
2023/07/24 01:56:44;;;;;;;3.88;2.65;;;;;;;17.64;100.00;100116.56;6304418;28;20182;-73
2023/07/24 01:59:46;;;;;;;8.45;3.00;;;;;;;17.65;100.00;100118.22;6304236;28;20053;-73
2023/07/24 02:02:47;;;;;;;3.90;2.95;;;;;;;17.68;100.00;100111.81;6303687;28;20055;-73
2023/07/24 02:05:51;;;;;;;4.90;2.80;;;;;;;17.77;100.00;100110.97;6303925;28;20056;-73
2023/07/24 02:08:52;;;;;;;4.50;3.38;;;;;;;17.81;100.00;100106.22;6304087;28;20440;-73
2023/07/24 02:11:55;;;;;;;6.72;2.97;;;;;;;17.80;100.00;100107.19;6303633;28;20071;-73
2023/07/24 02:14:57;;;;;;;4.90;3.05;;;;;;;17.70;100.00;100107.16;6303499;28;20048;-73
2023/07/24 02:17:58;;;;;;;5.97;4.15;;;;;;;17.69;100.00;100105.50;6303746;28;20048;-73
2023/07/24 02:20:59;;;;;;;5.82;3.65;;;;;;;17.69;100.00;100108.16;6303613;28;20044;-73
2023/07/24 02:24:01;;;;;;;4.82;3.50;;;;;;;17.75;100.00;100102.28;6303484;28;20056;-73
2023/07/24 02:27:05;;;;;;;10.85;3.20;;;;;;;17.86;100.00;100103.97;6303382;28;20356;-74
2023/07/24 02:30:07;;;;;;;8.35;3.88;;;;;;;17.84;100.00;100104.09;6289645;28;20049;-72
2023/07/24 02:33:09;;;;;;;4.05;3.33;;;;;;;17.87;100.00;100101.16;6278005;28;20056;-74
2023/07/24 02:36:10;;;;;;;6.53;4.25;;;;;;;17.85;100.00;100099.59;6278634;28;20045;-73
2023/07/24 02:39:11;;;;;;;8.40;3.85;;;;;;;17.85;100.00;100102.25;6278345;28;20053;-73
2023/07/24 02:42:14;;;;;;;6.53;4.15;;;;;;;17.88;100.00;100105.47;6278100;28;20049;-73
2023/07/24 02:45:16;;;;;;;6.47;3.50;;;;;;;17.89;100.00;100104.47;6275142;28;20053;-73
2023/07/24 02:48:17;;;;;;;5.22;3.95;;;;;;;17.80;100.00;100094.72;6284204;28;20361;-73
2023/07/24 02:51:18;;;;;;;4.63;3.60;;;;;;;17.76;100.00;100082.72;6286092;28;20049;-73
2023/07/24 02:54:20;;;;;;;5.07;3.67;;;;;;;17.82;100.00;100091.94;6294195;28;20040;-73
2023/07/24 02:57:23;;;;;;;8.82;3.70;;;;;;;17.76;100.00;100106.66;6278152;28;20068;-73
2023/07/24 03:00:24;;;;;;;8.02;4.55;;;;;;;17.68;100.00;100101.19;6293542;28;20052;-73
2023/07/24 03:03:25;;;;;;;12.15;3.72;;;;;;;17.69;100.00;100098.34;6286224;28;20460;-73
2023/07/24 03:06:27;;;;;;;5.85;4.40;;;;;;;17.67;100.00;100088.88;6292986;28;20125;-72
2023/07/24 03:09:28;;;;;;;5.85;4.35;;;;;;;17.69;100.00;100097.53;6286943;28;20049;-73
2023/07/24 03:12:31;;;;;;;5.97;4.00;;;;;;;17.67;100.00;100097.69;6292158;28;20433;-72
2023/07/24 03:15:32;;;;;;;6.57;4.60;;;;;;;17.69;100.00;100098.34;6287127;28;20356;-73
2023/07/24 03:18:34;;;;;;;10.15;4.93;;;;;;;17.74;100.00;100095.31;6291713;28;20334;-73
2023/07/24 03:21:35;;;;;;;5.40;3.83;;;;;;;17.72;100.00;100100.75;6287501;28;20049;-73
2023/07/24 03:24:37;;;;;;;6.03;4.15;;;;;;;17.67;100.00;100092.38;6290786;28;20055;-72
2023/07/24 03:27:40;;;;;;;5.82;4.15;;;;;;;17.67;100.00;100080.91;6287856;28;20056;-73
2023/07/24 03:30:41;;;;;;;5.43;3.72;;;;;;;17.72;100.00;100076.81;6290775;28;20060;-73
2023/07/24 03:33:43;;;;;;;5.22;4.18;;;;;;;17.69;100.00;100082.41;6283567;28;20052;-73
2023/07/24 03:36:44;;;;;;;5.22;3.47;;;;;;;17.63;100.00;100082.16;6276780;28;20044;-73
2023/07/24 03:39:45;;;;;;;7.68;4.47;;;;;;;17.60;100.00;100074.47;6276669;28;20044;-73
2023/07/24 03:42:48;;;;;;;4.95;3.53;;;;;;;17.62;100.00;100073.38;6276130;28;20044;-73
2023/07/24 03:45:50;;;;;;;7.30;3.58;;;;;;;17.63;100.00;100071.53;6269288;28;20047;-73
2023/07/24 03:48:52;;;;;;;5.97;3.60;;;;;;;17.61;100.00;100074.31;6255297;28;20049;-73
2023/07/24 03:51:53;;;;;;;7.85;4.28;;;;;;;17.64;100.00;100073.22;6259019;28;20119;-73
2023/07/24 03:54:54;;;;;;;4.88;3.80;;;;;;;17.67;100.00;100056.97;6255597;28;20052;-72
2023/07/24 03:57:57;;;;;;;8.68;4.32;;;;;;;17.72;100.00;100058.22;6255417;28;20044;-73
2023/07/24 04:00:59;;;;;;;7.47;4.07;;;;;;;17.72;100.00;100055.56;6257910;28;20491;-73
2023/07/24 04:04:01;;;;;;;5.85;3.95;;;;;;;17.72;100.00;100044.94;6257332;28;20040;-73
2023/07/24 04:07:02;;;;;;;4.53;3.45;;;;;;;17.70;100.00;100051.38;6254129;28;20107;-73
2023/07/24 04:10:05;;;;;;;6.53;3.80;;;;;;;17.75;100.00;100049.97;6255983;28;20052;-72
2023/07/24 04:13:07;;;;;;;5.70;3.70;;;;;;;17.72;100.00;100052.06;6255266;28;20057;-73
2023/07/24 04:16:09;;;;;;;5.30;3.75;;;;;;;17.73;100.00;100043.97;6262944;28;20581;-73
2023/07/24 04:19:10;;;;;;;5.32;3.90;;;;;;;17.76;100.00;100050.84;6258257;28;20040;-73
2023/07/24 04:22:11;;;;;;;4.47;3.55;;;;;;;17.78;100.00;100048.84;6265452;28;20060;-74
2023/07/24 04:25:13;;;;;;;6.53;3.97;;;;;;;17.84;100.00;100055.41;6254461;28;20488;-73
2023/07/24 04:28:16;;;;;;;8.93;4.05;;;;;;;17.86;100.00;100040.16;6255287;28;20055;-73
2023/07/24 04:31:17;;;;;;;5.53;3.30;;;;;;;17.84;100.00;100042.13;6256667;28;20049;-73
2023/07/24 04:34:18;;;;;;;6.13;4.10;;;;;;;17.84;100.00;100037.63;6263924;28;20040;-73
2023/07/24 04:37:20;;;;;;;11.30;3.97;;;;;;;17.86;100.00;100034.84;6253301;28;20044;-73
2023/07/24 04:40:21;;;;;;;5.55;3.83;;;;;;;17.91;100.00;100029.94;6254146;28;20045;-73
2023/07/24 04:43:24;;;;;;;5.63;3.20;;;;;;;17.87;100.00;100023.22;6258296;28;20584;-72
2023/07/24 04:46:25;;;;;;;7.78;3.67;;;;;;;17.87;100.00;100015.25;6267477;28;20045;-73
2023/07/24 04:49:29;;;;;;;5.13;3.58;;;;;;;17.83;100.00;100014.69;6275359;28;20049;-73
2023/07/24 04:52:30;;;;;;;7.45;3.08;;;;;;;17.90;100.00;100004.34;6274832;28;20129;-73
2023/07/24 04:55:32;;;;;;;4.82;3.30;;;;;;;17.90;100.00;99997.19;6275022;28;20441;-73
2023/07/24 04:58:35;;;;;;;4.32;2.83;;;;;;;17.91;100.00;100001.50;6275005;28;20049;-72
2023/07/24 05:01:36;;;;;;;4.80;3.08;;;;;;;17.93;100.00;99996.03;6283374;28;20059;-72
2023/07/24 05:04:37;;;;;;;3.90;2.67;;;;;;;17.99;100.00;100006.94;6274632;28;20049;-73
2023/07/24 05:07:39;;;;;;;6.75;2.90;;;;;;;18.07;100.00;100000.88;6274963;28;20053;-72
2023/07/24 05:10:40;;;;;;;3.75;2.60;;;;;;;18.07;100.00;100002.69;6278831;28;20062;-73
2023/07/24 05:13:43;;;;;;;3.80;2.80;;;;;;;18.09;100.00;99993.59;6279622;28;20053;-73
2023/07/24 05:16:44;;;;;;;7.38;2.63;;;;;;;18.13;100.00;99988.81;6280047;28;20056;-73
2023/07/24 05:19:46;;;;;;;3.80;2.50;;;;;;;18.13;100.00;100000.28;6279850;28;20041;-73
2023/07/24 05:22:47;;;;;;;6.07;2.97;;;;;;;18.08;100.00;100001.72;6279500;28;20049;-73
2023/07/24 05:25:57;;;;;;;4.00;2.00;;;;;;;18.09;100.00;99996.25;6279079;28;20345;-73
2023/07/24 05:29:00;;;;;;;4.78;2.25;;;;;;;18.08;100.00;99986.59;6284664;28;20045;-73
2023/07/24 05:32:01;;;;;;;3.50;1.88;;;;;;;18.11;100.00;99988.13;6279476;28;20450;-73
2023/07/24 05:35:03;;;;;;;3.00;1.95;;;;;;;18.08;100.00;99983.94;6286695;28;20045;-73
2023/07/24 05:38:04;;;;;;;3.30;1.45;;;;;;;18.14;100.00;99974.53;6282162;28;20449;-74
2023/07/24 05:41:06;;;;;;;2.85;2.15;;;;;;;18.13;100.00;99976.34;6279103;28;20049;-73
2023/07/24 05:44:09;;;;;;;5.22;1.80;;;;;;;18.12;100.00;99974.69;6279015;28;20052;-73
2023/07/24 05:47:10;;;;;;;6.65;1.88;;;;;;;18.10;100.00;99983.78;6279385;28;20057;-73
2023/07/24 05:50:13;;;;;;;2.03;1.40;;;;;;;18.10;100.00;99978.47;6274320;28;20060;-74
2023/07/24 05:53:15;;;;;;;2.33;1.40;;;;;;;18.12;100.00;99960.53;6278240;28;20049;-74
2023/07/24 05:56:17;;;;;;;2.88;1.58;;;;;;;18.12;100.00;99963.19;6278542;28;20118;-73
2023/07/24 05:59:19;;;;;;;3.55;1.75;;;;;;;18.10;100.00;99954.53;6278302;28;20041;-73
2023/07/24 06:02:21;;;;;;;4.95;2.08;;;;;;;18.06;100.00;99956.66;6277686;28;20353;-72
2023/07/24 06:05:23;;;;;;;2.90;1.75;;;;;;;18.03;100.00;99958.75;6286650;28;20125;-71
2023/07/24 06:08:25;;;;;;;6.35;1.73;;;;;;;18.00;100.00;99951.94;6270857;28;20068;-71
2023/07/24 06:11:27;;;;;;;4.00;2.15;;;;;;;17.97;100.00;99952.22;6278557;28;20076;-72
2023/07/24 06:14:30;;;;;;;3.28;1.92;;;;;;;17.95;100.00;99951.56;6277741;28;20198;-72
2023/07/24 06:17:31;;;;;;;4.95;1.98;;;;;;;17.95;100.00;99960.34;6278646;28;20048;-72
2023/07/24 06:20:33;;;;;;;4.60;2.17;;;;;;;17.88;100.00;99959.28;6277118;28;20053;-72
2023/07/24 06:23:34;;;;;;;9.50;3.00;;;;;;;17.87;100.00;99967.41;6278166;28;20060;-72
2023/07/24 06:26:36;;;;;;;3.17;1.92;;;;;;;17.79;100.00;99981.41;6278239;28;20049;-72
2023/07/24 06:29:39;;;;;;;5.93;2.40;;;;;;;17.70;100.00;99987.59;6278243;28;20349;-74
2023/07/24 06:32:40;;;;;;;5.65;1.90;;;;;;;17.60;100.00;99979.66;6277825;28;20053;-74
2023/07/24 06:35:42;;;;;;;5.65;2.72;;;;;;;17.52;100.00;99968.91;6278201;28;20045;-74
2023/07/24 06:38:44;;;;;;;5.28;2.30;;;;;;;17.50;100.00;99981.50;6278168;28;20128;-74
2023/07/24 06:41:45;;;;;;;5.55;2.67;;;;;;;17.49;100.00;99970.06;6277733;28;20344;-74
2023/07/24 06:44:48;;;;;;;2.88;1.83;;;;;;;17.49;100.00;99969.22;6277728;28;20684;-74
2023/07/24 06:47:50;;;;;;;3.17;1.90;;;;;;;17.49;100.00;99977.19;6278045;28;20045;-74
2023/07/24 06:50:51;;;;;;;3.58;2.60;;;;;;;17.44;100.00;99968.78;6281598;28;20109;-76
2023/07/24 06:53:53;;;;;;;4.65;1.95;;;;;;;17.43;100.00;99970.63;6281816;28;20052;-76
2023/07/24 06:56:54;;;;;;;3.38;2.15;;;;;;;17.42;100.00;99968.13;6286081;28;20060;-75
2023/07/24 06:59:57;;;;;;;3.80;1.92;;;;;;;17.42;100.00;99968.94;6277672;28;20056;-76
2023/07/24 07:02:58;;;;;;;2.88;1.95;;;;;;;17.45;100.00;99965.19;6276351;28;20052;-75
2023/07/24 07:06:00;;;;;;;3.38;2.03;;;;;;;17.45;100.00;99973.97;6277302;28;20045;-76
2023/07/24 07:09:02;;;;;;;3.30;2.40;;;;;;;17.43;100.00;99969.78;6277657;28;20049;-75
2023/07/24 07:12:03;;;;;;;3.20;1.70;;;;;;;17.48;100.00;99952.41;6277019;28;20052;-75
2023/07/24 07:15:08;;;;;;;4.55;1.92;;;;;;;17.47;100.00;99956.06;6282768;28;20045;-75
2023/07/24 07:18:09;;;;;;;3.78;2.08;;;;;;;17.46;100.00;99959.72;6279507;28;20049;-76
2023/07/24 07:21:10;;;;;;;3.83;2.30;;;;;;;17.47;100.00;99955.22;6277007;28;20045;-76
2023/07/24 07:24:12;;;;;;;6.45;2.40;;;;;;;17.44;100.00;99953.72;6276742;28;20060;-75
2023/07/24 07:27:13;;;;;;;4.07;2.42;;;;;;;17.44;100.00;99959.03;6269321;28;20053;-73
2023/07/24 07:30:16;;;;;;;5.75;2.17;;;;;;;17.43;100.00;99960.00;6273389;28;20072;-76
2023/07/24 07:33:17;;;;;;;4.80;2.00;;;;;;;17.43;100.00;99960.00;6267748;28;20051;-75
2023/07/24 07:36:19;;;;;;;4.30;2.20;;;;;;;17.41;100.00;99969.94;6271806;28;20429;-74
2023/07/24 07:39:20;;;;;;;3.88;1.90;;;;;;;17.38;100.00;99967.56;6263250;28;20049;-77
2023/07/24 07:42:22;;;;;;;4.97;1.85;;;;;;;17.35;100.00;99967.88;6275336;28;20044;-76
2023/07/24 07:45:25;;;;;;;4.93;1.95;;;;;;;17.36;100.00;99966.88;6276122;28;20056;-77
2023/07/24 07:48:26;;;;;;;3.15;1.67;;;;;;;17.40;100.00;99968.28;6268079;28;20045;-76
2023/07/24 07:51:28;;;;;;;2.17;1.40;;;;;;;17.42;100.00;99981.41;6276112;28;20357;-76
2023/07/24 07:54:29;;;;;;;6.00;1.95;;;;;;;17.46;100.00;99983.63;6273142;28;20038;-75
2023/07/24 07:57:30;;;;;;;1.80;1.48;;;;;;;17.53;100.00;99983.84;6276392;28;20045;-78
2023/07/24 08:00:33;;;;;;;3.40;1.77;;;;;;;17.54;100.00;99988.22;6275300;28;20143;-76
2023/07/24 08:03:35;;;;;;;4.85;1.98;;;;;;;17.64;100.00;99975.72;6275805;28;20079;-75
2023/07/24 08:06:36;;;;;;;3.35;1.88;;;;;;;17.73;100.00;99982.84;6277326;28;20437;-74
2023/07/24 08:09:38;;;;;;;4.60;1.65;;;;;;;17.80;100.00;99979.59;6282777;28;20049;-77
2023/07/24 08:12:40;;;;;;;2.30;1.70;;;;;;;17.85;100.00;99985.31;6275409;28;20110;-74
2023/07/24 08:15:42;;;;;;;3.33;1.90;;;;;;;17.89;100.00;99982.19;6275906;28;20056;-80
2023/07/24 08:18:44;;;;;;;5.82;1.92;;;;;;;17.94;100.00;99995.03;6275808;28;20053;-74
2023/07/24 08:21:45;;;;;;;1.13;1.02;;;;;;;17.75;100.00;99985.34;6278430;28;20468;-74
2023/07/24 08:24:50;;;;;;;2.08;1.23;;;;;;;17.63;100.00;99990.00;6280837;28;20159;-75
2023/07/24 08:27:51;;;;;;;4.03;1.52;;;;;;;17.55;100.00;99994.38;6284044;28;20056;-75
2023/07/24 08:31:01;;;;;;;1.85;1.08;;;;;;;17.46;100.00;99990.75;6275471;28;20146;-76
2023/07/24 08:34:03;;;;;;;1.02;0.90;;;;;;;17.49;100.00;99990.47;6275022;28;20049;-75
2023/07/24 08:37:05;;;;;;;2.15;1.00;;;;;;;17.54;100.00;99984.72;6275556;28;20056;-74
2023/07/24 08:40:08;;;;;;;0.85;0.65;;;;;;;17.56;100.00;99980.91;6275182;28;20342;-74
2023/07/24 08:43:09;;;;;;;1.58;1.27;;;;;;;17.65;100.00;99979.22;6274865;28;20053;-75
2023/07/24 08:46:12;;;;;;;1.90;1.50;;;;;;;17.70;100.00;99974.28;6281941;28;20433;-74
2023/07/24 08:49:14;;;;;;;2.33;1.77;;;;;;;17.74;100.00;99970.41;6275357;28;20052;-74
2023/07/24 08:52:16;;;;;;;2.10;1.35;;;;;;;17.79;100.00;99975.28;6274698;28;20479;-74
2023/07/24 08:55:17;;;;;;;2.35;1.95;;;;;;;17.87;100.00;99967.41;6274834;28;20356;-74
2023/07/24 08:58:19;;;;;;;3.15;2.08;;;;;;;18.00;100.00;99965.22;6280470;28;20048;-74
2023/07/24 09:01:22;;;;;;;2.30;1.88;;;;;;;18.11;100.00;99967.66;6271121;28;20055;-74
2023/07/24 09:04:23;;;;;;;3.03;1.90;;;;;;;18.19;100.00;99967.75;6274597;28;20049;-74
2023/07/24 09:07:24;;;;;;;2.97;2.10;;;;;;;18.19;100.00;99954.47;6283072;28;20052;-74
2023/07/24 09:10:26;;;;;;;3.45;1.98;;;;;;;18.19;100.00;99959.78;6280687;28;20055;-74
2023/07/24 09:13:28;;;;;;;3.78;2.25;;;;;;;18.23;100.00;99955.84;6282795;28;20056;-75
2023/07/24 09:16:31;;;;;;;5.95;2.10;;;;;;;18.25;100.00;99956.50;6274938;28;20041;-76
2023/07/24 09:19:32;;;;;;;3.00;1.88;;;;;;;18.23;100.00;99953.19;6274801;28;20045;-74
2023/07/24 09:22:34;;;;;;;2.75;2.08;;;;;;;18.24;100.00;99957.50;6274598;28;20049;-74
2023/07/24 09:25:36;;;;;;;5.03;2.38;;;;;;;18.27;100.00;99956.38;6275527;28;20057;-75
2023/07/24 09:28:38;;;;;;;2.40;1.83;;;;;;;18.40;100.00;99961.34;6281546;28;20076;-74
2023/07/24 09:31:40;;;;;;;3.80;2.40;;;;;;;18.44;100.00;99957.38;6274517;28;20468;-74
2023/07/24 09:34:43;;;;;;;3.53;2.33;;;;;;;18.52;100.00;99949.47;6276423;28;20059;-74
2023/07/24 09:37:45;;;;;;;3.15;2.50;;;;;;;18.61;100.00;99945.06;6280458;28;20068;-74
2023/07/24 09:40:47;;;;;;;4.75;3.08;;;;;;;18.59;100.00;99934.56;6274292;28;20052;-74
2023/07/24 09:43:48;;;;;;;2.92;2.00;;;;;;;18.61;100.00;99935.25;6274265;28;20096;-74
2023/07/24 09:46:51;;;;;;;3.20;2.20;;;;;;;18.58;100.00;99943.56;6274030;28;20318;-75
2023/07/24 09:49:53;;;;;;;2.42;1.83;;;;;;;18.49;100.00;99939.97;6274418;28;20048;-75
2023/07/24 09:52:57;;;;;;;2.28;2.03;;;;;;;18.51;100.00;99935.31;6270644;28;20645;-76
2023/07/24 09:56:00;;;;;;;1.88;1.50;;;;;;;18.56;100.00;99934.88;6272420;28;20042;-75
2023/07/24 09:59:03;;;;;;;2.60;1.88;;;;;;;18.53;100.00;99935.19;6278811;28;20353;-74
2023/07/24 10:02:09;;;;;;;2.25;1.55;;;;;;;18.54;100.00;99928.03;6278901;28;20056;-75
2023/07/24 10:05:12;;;;;;;2.58;1.90;;;;;;;18.62;100.00;99923.63;6278608;28;20045;-74
2023/07/24 10:08:15;;;;;;;2.00;1.42;;;;;;;18.62;100.00;99934.28;6279164;28;20052;-74
2023/07/24 10:11:17;;;;;;;4.25;1.80;;;;;;;18.64;100.00;99937.59;6278564;28;20048;-74
2023/07/24 10:14:19;;;;;;;1.48;1.30;;;;;;;18.61;100.00;99945.88;6278579;28;20051;-73
2023/07/24 10:17:35;;;;;;;1.90;1.48;;;;;;;18.61;100.00;99945.06;6278649;28;20052;-73
2023/07/24 10:20:38;;;;;;;1.48;1.30;;;;;;;18.61;100.00;99939.72;6278724;28;20049;-73
2023/07/24 10:23:43;;;;;;;1.98;1.50;;;;;;;18.57;100.00;99941.03;6278187;28;20056;-74
2023/07/24 10:26:44;;;;;;;2.25;1.63;;;;;;;18.50;100.00;99940.81;6286739;28;20174;-73
2023/07/24 10:29:48;;;;;;;2.15;1.52;;;;;;;18.41;100.00;99931.09;6278275;28;20369;-73
2023/07/24 10:32:51;;;;;;;2.15;1.50;;;;;;;18.42;100.00;99940.72;6277764;28;20063;-73
2023/07/24 10:35:55;;;;;;;6.75;1.83;;;;;;;18.42;100.00;99924.75;6281637;28;20124;-73
2023/07/24 10:38:57;;;;;;;2.15;1.50;;;;;;;18.43;100.00;99927.25;6277918;28;20330;-73
2023/07/24 10:42:06;;;;;;;2.40;1.67;;;;;;;18.42;100.00;99922.09;6277940;28;20180;-74
2023/07/24 10:45:08;;;;;;;4.53;1.40;;;;;;;18.43;100.00;99927.25;6277722;28;20070;-71
2023/07/24 10:48:12;;;;;;;2.17;1.33;;;;;;;18.48;100.00;99921.47;6277886;28;20056;-71
2023/07/24 10:51:14;;;;;;;2.72;1.20;;;;;;;18.53;100.00;99911.25;6277770;28;20053;-71
2023/07/24 10:54:22;;;;;;;2.15;1.20;;;;;;;18.60;100.00;99909.63;6277658;28;20076;-71
2023/07/24 10:57:27;;;;;;;2.38;0.95;;;;;;;18.84;100.00;99901.00;6277028;28;20045;-71
2023/07/24 11:00:29;;;;;;;2.17;1.25;;;;;;;19.07;100.00;99906.66;6271942;28;20139;-71
2023/07/24 11:03:32;;;;;;;2.95;1.10;;;;;;;19.09;100.00;99910.00;6270791;28;20044;-71
2023/07/24 11:06:33;;;;;;;7.70;1.13;;;;;;;19.28;100.00;99903.63;6276346;28;20509;-71
2023/07/24 11:09:36;;;;;;;2.05;1.05;;;;;;;19.09;100.00;99901.19;6277421;28;20056;-71
2023/07/24 11:12:39;;;;;;;2.00;1.10;;;;;;;19.38;100.00;99900.84;6276762;28;20445;-71
2023/07/24 11:15:41;;;;;;;1.10;1.00;;;;;;;19.50;100.00;99897.72;6277275;28;20048;-71
2023/07/24 11:18:48;;;;;;;1.05;0.95;;;;;;;19.66;100.00;99885.47;6277360;28;20045;-72
2023/07/24 11:21:49;;;;;;;1.40;0.85;;;;;;;19.81;100.00;99902.53;6273593;28;20052;-75
2023/07/24 11:24:51;;;;;;;1.08;0.70;;;;;;;19.86;100.00;99892.22;6275823;28;20057;-72
2023/07/24 11:27:52;;;;;;;0.70;0.70;;;;;;;19.91;100.00;99891.75;6276677;28;20369;-72
2023/07/24 11:30:53;;;;;;;1.33;0.80;;;;;;;19.98;100.00;99892.72;6276670;28;20049;-73
2023/07/24 11:33:58;;;;;;;1.90;0.98;;;;;;;19.95;100.00;99888.59;6280077;28;20045;-73
2023/07/24 11:37:00;;;;;;;1.55;1.33;;;;;;;20.09;100.00;99883.59;6276656;28;20433;-76
2023/07/24 11:40:04;;;;;;;1.85;0.93;;;;;;;20.19;100.00;99876.28;6276771;28;20048;-71
2023/07/24 11:43:06;;;;;;;1.52;0.98;;;;;;;20.40;100.00;99875.81;6276072;28;20433;-71
2023/07/24 11:46:07;;;;;;;1.40;1.00;;;;;;;20.65;100.00;99882.00;6276167;28;20348;-71
2023/07/24 11:49:10;;;;;;;1.40;1.08;;;;;;;20.67;100.00;99878.16;6283558;28;20048;-71
2023/07/24 11:52:11;;;;;;;22.92;1.92;;;;;;;20.92;100.00;99875.44;6276270;28;20049;-72
2023/07/24 11:55:14;;;;;;;2.17;1.20;;;;;;;21.06;100.00;99877.41;6276135;28;20429;-73
2023/07/24 11:58:16;;;;;;;4.03;1.58;;;;;;;20.99;100.00;99874.59;6276206;28;20051;-72
2023/07/24 12:01:18;;;;;;;2.85;1.30;;;;;;;21.09;100.00;99876.25;6276207;28;20044;-73
2023/07/24 12:04:21;;;;;;;2.17;1.38;;;;;;;20.95;100.00;99873.28;6284024;28;20051;-72
2023/07/24 12:07:23;;;;;;;1.30;1.17;;;;;;;20.78;100.00;99872.47;6275944;28;20095;-72
2023/07/24 12:10:28;;;;;;;1.98;1.15;;;;;;;20.60;100.00;99865.66;6275862;28;20115;-72
2023/07/24 12:13:31;;;;;;;1.50;1.25;;;;;;;20.47;100.00;99874.13;6275614;28;20114;-73
2023/07/24 12:16:34;;;;;;;1.85;1.20;;;;;;;20.23;100.00;99880.28;6275787;28;20047;-72
2023/07/24 12:19:37;;;;;;;2.03;1.30;;;;;;;20.10;100.00;99880.75;6275576;28;20052;-71
2023/07/24 12:22:39;;;;;;;1.70;1.25;;;;;;;20.07;100.00;99875.75;6275600;28;20124;-72
2023/07/24 12:25:40;;;;;;;2.42;1.67;;;;;;;20.03;100.00;99879.78;6275708;28;20045;-73
2023/07/24 12:28:42;;;;;;;2.45;1.65;;;;;;;20.05;100.00;99880.44;6275549;28;20045;-73
2023/07/24 12:31:43;;;;;;;3.88;2.08;;;;;;;20.18;100.00;99874.63;6275610;28;20041;-72
2023/07/24 12:34:47;;;;;;;2.15;1.73;;;;;;;20.41;100.00;99861.44;6270817;28;20045;-73
2023/07/24 12:37:49;;;;;;;3.38;1.70;;;;;;;20.75;100.00;99861.28;6271844;28;20041;-73
2023/07/24 12:40:50;;;;;;;2.50;1.50;;;;;;;20.73;100.00;99853.44;6272243;28;20055;-73
2023/07/24 12:43:52;;;;;;;3.60;1.75;;;;;;;20.69;100.00;99852.13;6274838;28;20048;-73
2023/07/24 12:46:53;;;;;;;2.95;1.52;;;;;;;20.61;100.00;99849.44;6275354;28;20064;-73
2023/07/24 12:49:57;;;;;;;2.50;1.38;;;;;;;20.63;100.00;99858.13;6275114;28;20053;-73
2023/07/24 12:52:58;;;;;;;1.70;1.10;;;;;;;20.65;100.00;99850.78;6274910;28;20059;-72
2023/07/24 12:56:00;;;;;;;3.65;1.58;;;;;;;20.64;100.00;99845.63;6275181;28;20444;-73
2023/07/24 12:59:03;;;;;;;1.88;1.42;;;;;;;20.46;100.00;99827.91;6275271;28;20047;-73
2023/07/24 13:02:04;;;;;;;2.80;1.48;;;;;;;20.38;100.00;99830.59;6269106;28;20425;-77
2023/07/24 13:05:08;;;;;;;2.63;1.40;;;;;;;20.42;100.00;99829.25;6275024;28;20044;-73
2023/07/24 13:08:09;;;;;;;3.00;1.52;;;;;;;20.35;100.00;99822.94;6274572;28;20052;-72
2023/07/24 13:11:10;;;;;;;2.72;1.45;;;;;;;20.35;100.00;99827.41;6271979;28;20052;-73
2023/07/24 13:14:12;;;;;;;3.38;1.50;;;;;;;20.30;100.00;99833.25;6274307;28;20357;-72
2023/07/24 13:17:13;;;;;;;2.88;1.55;;;;;;;20.42;100.00;99833.75;6274661;28;20072;-73
2023/07/24 13:20:16;;;;;;;1.92;1.30;;;;;;;20.47;100.00;99840.28;6274752;28;20041;-73
2023/07/24 13:23:17;;;;;;;2.25;1.55;;;;;;;20.51;100.00;99832.78;6274475;28;20052;-73
2023/07/24 13:26:19;;;;;;;3.88;1.20;;;;;;;20.49;100.00;99842.81;6274784;28;20052;-73
2023/07/24 13:29:20;;;;;;;2.38;1.30;;;;;;;20.51;100.00;99843.47;6274740;28;20056;-73
2023/07/24 13:32:22;;;;;;;2.63;1.75;;;;;;;20.53;100.00;99822.78;6279370;28;20049;-73
2023/07/24 13:35:24;;;;;;;4.30;1.58;;;;;;;20.46;100.00;99819.91;6287811;28;20056;-73
2023/07/24 13:38:26;;;;;;;2.50;1.65;;;;;;;20.44;100.00;99837.94;6287926;28;20067;-73
2023/07/24 13:41:27;;;;;;;2.28;1.98;;;;;;;20.46;100.00;99827.09;6279456;28;20060;-73
2023/07/24 13:44:28;;;;;;;2.65;1.77;;;;;;;20.38;100.00;99840.44;6279398;28;20055;-73
2023/07/24 13:47:30;;;;;;;2.55;1.25;;;;;;;20.34;100.00;99829.25;6279368;28;20461;-73
2023/07/24 13:50:33;;;;;;;1.80;1.65;;;;;;;20.27;100.00;99829.09;6279334;28;20045;-73
2023/07/24 13:53:34;;;;;;;2.20;1.40;;;;;;;20.21;100.00;99813.75;6270752;28;20326;-73
2023/07/24 13:56:36;;;;;;;3.17;1.52;;;;;;;20.20;100.00;99811.25;6279103;28;20045;-73
2023/07/24 13:59:39;;;;;;;2.53;1.50;;;;;;;20.20;100.00;99812.06;6279190;28;20049;-73
2023/07/24 14:02:40;;;;;;;2.42;1.70;;;;;;;20.16;100.00;99829.41;6278530;28;20037;-73